sensor_id;sensor_type;location;lat;lon;timestamp;P1;P2;P0
47709;PMS7003;33473;51.640;5.892;2023-12-07T00:08:14;25.57;23.55;14.4
47709;PMS7003;33473;51.640;5.892;2023-12-07T00:21:35;27.85;23.66;14.51
47709;PMS7003;33473;51.640;5.892;2023-12-07T00:34:56;28.69;25.73;15.38
47709;PMS7003;33473;51.640;5.892;2023-12-07T00:48:16;28.81;25.73;15.27
47709;PMS7003;33473;51.640;5.892;2023-12-07T01:01:37;26.29;23.34;13.85
47709;PMS7003;33473;51.640;5.892;2023-12-07T01:14:58;26.41;24.21;14.94
47709;PMS7003;33473;51.640;5.892;2023-12-07T01:28:20;15.37;17.23;11.02
47709;PMS7003;33473;51.640;5.892;2023-12-07T01:41:41;25.45;23.34;14.18
47709;PMS7003;33473;51.640;5.892;2023-12-07T01:55:00;25.45;23.88;13.96
47709;PMS7003;33473;51.640;5.892;2023-12-07T02:08:22;28.33;25.08;14.72
47709;PMS7003;33473;51.640;5.892;2023-12-07T02:21:43;28.93;25.73;14.51
47709;PMS7003;33473;51.640;5.892;2023-12-07T02:35:04;22.09;21.48;12.76
47709;PMS7003;33473;51.640;5.892;2023-12-07T02:48:25;27.97;25.08;14.62
47709;PMS7003;33473;51.640;5.892;2023-12-07T03:01:47;32.17;27.91;16.36
47709;PMS7003;33473;51.640;5.892;2023-12-07T03:15:08;33.01;28.57;17.12
47709;PMS7003;33473;51.640;5.892;2023-12-07T03:28:29;33.25;28.79;17.01
47709;PMS7003;33473;51.640;5.892;2023-12-07T03:41:50;34.1;29.11;17.45
47709;PMS7003;33473;51.640;5.892;2023-12-07T03:55:11;34.1;29.0;17.01
47709;PMS7003;33473;51.640;5.892;2023-12-07T04:08:33;33.98;28.68;17.12
47709;PMS7003;33473;51.640;5.892;2023-12-07T04:21:52;34.1;28.79;16.47
47709;PMS7003;33473;51.640;5.892;2023-12-07T04:35:14;32.65;27.8;16.36
47709;PMS7003;33473;51.640;5.892;2023-12-07T04:48:35;33.62;28.46;16.47
47709;PMS7003;33473;51.640;5.892;2023-12-07T05:01:56;31.45;27.48;15.92
47709;PMS7003;33473;51.640;5.892;2023-12-07T05:15:17;30.97;26.93;15.71
47709;PMS7003;33473;51.640;5.892;2023-12-07T05:28:39;33.13;27.8;15.81
47709;PMS7003;33473;51.640;5.892;2023-12-07T05:41:58;30.73;26.93;14.83
47709;PMS7003;33473;51.640;5.892;2023-12-07T05:55:19;29.65;26.17;14.51
47709;PMS7003;33473;51.640;5.892;2023-12-07T06:08:39;27.85;24.86;13.42
47709;PMS7003;33473;51.640;5.892;2023-12-07T06:21:59;28.21;25.3;13.74
47709;PMS7003;33473;51.640;5.892;2023-12-07T06:35:20;22.81;21.92;11.35
47709;PMS7003;33473;51.640;5.892;2023-12-07T06:48:41;19.21;20.17;10.04
47709;PMS7003;33473;51.640;5.892;2023-12-07T07:02:02;13.09;15.16;7.64
47709;PMS7003;33473;51.640;5.892;2023-12-07T07:15:23;14.65;16.47;7.75
47709;PMS7003;33473;51.640;5.892;2023-12-07T07:28:45;13.57;15.6;7.31
47709;PMS7003;33473;51.640;5.892;2023-12-07T07:42:06;13.69;15.49;7.2
47709;PMS7003;33473;51.640;5.892;2023-12-07T07:55:26;12.85;14.94;6.88
47709;PMS7003;33473;51.640;5.892;2023-12-07T08:08:47;12.49;14.62;6.77
47709;PMS7003;33473;51.640;5.892;2023-12-07T08:22:07;13.45;15.49;6.88
47709;PMS7003;33473;51.640;5.892;2023-12-07T08:35:26;14.77;16.69;7.09
47709;PMS7003;33473;51.640;5.892;2023-12-07T08:48:48;14.17;16.14;7.42
47709;PMS7003;33473;51.640;5.892;2023-12-07T09:02:09;15.37;16.69;7.64
47709;PMS7003;33473;51.640;5.892;2023-12-07T09:15:30;18.61;19.19;7.97
47709;PMS7003;33473;51.640;5.892;2023-12-07T09:28:51;22.09;21.7;9.6
47709;PMS7003;33473;51.640;5.892;2023-12-07T09:42:12;23.53;22.25;10.36
47709;PMS7003;33473;51.640;5.892;2023-12-07T09:55:32;29.29;24.86;12.0
47709;PMS7003;33473;51.640;5.892;2023-12-07T10:08:53;29.05;25.08;12.44
47709;PMS7003;33473;51.640;5.892;2023-12-07T10:22:15;29.05;25.08;12.44
47709;PMS7003;33473;51.640;5.892;2023-12-07T10:35:36;29.29;24.97;13.2
47709;PMS7003;33473;51.640;5.892;2023-12-07T10:48:56;29.41;25.84;12.76
47709;PMS7003;33473;51.640;5.892;2023-12-07T11:02:15;28.21;24.43;12.76
47709;PMS7003;33473;51.640;5.892;2023-12-07T11:15:36;27.13;24.21;13.2
47709;PMS7003;33473;51.640;5.892;2023-12-07T11:28:58;27.13;23.88;13.42
47709;PMS7003;33473;51.640;5.892;2023-12-07T11:42:19;28.93;25.19;13.31
47709;PMS7003;33473;51.640;5.892;2023-12-07T11:55:39;29.77;25.73;13.42
47709;PMS7003;33473;51.640;5.892;2023-12-07T12:09:00;29.17;25.52;13.2
47709;PMS7003;33473;51.640;5.892;2023-12-07T12:22:21;28.57;24.97;12.87
47709;PMS7003;33473;51.640;5.892;2023-12-07T12:35:41;26.05;23.55;11.67
47709;PMS7003;33473;51.640;5.892;2023-12-07T12:49:02;27.13;23.55;12.11
47709;PMS7003;33473;51.640;5.892;2023-12-07T13:02:22;25.57;22.68;11.78
47709;PMS7003;33473;51.640;5.892;2023-12-07T13:15:43;26.53;23.44;12.11
47709;PMS7003;33473;51.640;5.892;2023-12-07T13:29:04;25.81;23.34;12.87
47709;PMS7003;33473;51.640;5.892;2023-12-07T13:42:24;30.73;25.41;13.31
47709;PMS7003;33473;51.640;5.892;2023-12-07T13:55:43;28.45;25.19;13.85
47709;PMS7003;33473;51.640;5.892;2023-12-07T14:09:05;26.65;24.1;13.74
47709;PMS7003;33473;51.640;5.892;2023-12-07T14:22:24;24.85;22.9;12.11
47709;PMS7003;33473;51.640;5.892;2023-12-07T14:35:45;24.01;22.35;12.87
47709;PMS7003;33473;51.640;5.892;2023-12-07T14:49:07;25.81;23.01;12.65
47709;PMS7003;33473;51.640;5.892;2023-12-07T15:02:28;25.45;23.12;12.76
47709;PMS7003;33473;51.640;5.892;2023-12-07T15:15:49;25.09;22.9;12.98
47709;PMS7003;33473;51.640;5.892;2023-12-07T15:29:09;23.89;22.46;12.54
47709;PMS7003;33473;51.640;5.892;2023-12-07T15:42:30;24.61;22.68;12.87
47709;PMS7003;33473;51.640;5.892;2023-12-07T15:55:51;26.29;23.55;12.98
47709;PMS7003;33473;51.640;5.892;2023-12-07T16:09:12;26.05;23.44;13.53
47709;PMS7003;33473;51.640;5.892;2023-12-07T16:22:34;27.13;24.21;13.63
47709;PMS7003;33473;51.640;5.892;2023-12-07T16:35:55;25.57;23.44;13.09
47709;PMS7003;33473;51.640;5.892;2023-12-07T16:49:16;24.61;22.68;12.44
47709;PMS7003;33473;51.640;5.892;2023-12-07T17:02:37;22.69;21.48;12.33
47709;PMS7003;33473;51.640;5.892;2023-12-07T17:15:58;23.53;22.14;12.22
47709;PMS7003;33473;51.640;5.892;2023-12-07T17:29:20;21.13;20.72;11.45
47709;PMS7003;33473;51.640;5.892;2023-12-07T17:42:41;20.29;20.39;11.56
47709;PMS7003;33473;51.640;5.892;2023-12-07T17:56:01;19.93;20.17;10.91
47709;PMS7003;33473;51.640;5.892;2023-12-07T18:09:22;17.53;18.87;10.8
47709;PMS7003;33473;51.640;5.892;2023-12-07T18:22:43;17.41;18.65;10.15
47709;PMS7003;33473;51.640;5.892;2023-12-07T18:36:04;16.21;17.78;9.93
47709;PMS7003;33473;51.640;5.892;2023-12-07T18:49:26;15.85;17.34;9.82
47709;PMS7003;33473;51.640;5.892;2023-12-07T19:02:45;17.29;18.65;9.71
47709;PMS7003;33473;51.640;5.892;2023-12-07T19:16:06;17.53;17.99;9.71
47709;PMS7003;33473;51.640;5.892;2023-12-07T19:29:28;16.57;18.1;9.6
47709;PMS7003;33473;51.640;5.892;2023-12-07T19:42:47;17.41;18.76;10.04
47709;PMS7003;33473;51.640;5.892;2023-12-07T19:56:07;16.09;17.78;9.38
47709;PMS7003;33473;51.640;5.892;2023-12-07T20:09:28;17.53;18.32;10.15
47709;PMS7003;33473;51.640;5.892;2023-12-07T20:22:49;17.65;19.08;10.26
47709;PMS7003;33473;51.640;5.892;2023-12-07T20:36:09;21.37;20.83;10.69
47709;PMS7003;33473;51.640;5.892;2023-12-07T20:49:30;20.77;20.39;11.45
47709;PMS7003;33473;51.640;5.892;2023-12-07T21:02:52;21.73;21.26;12.11
47709;PMS7003;33473;51.640;5.892;2023-12-07T21:16:11;20.41;20.94;12.11
47709;PMS7003;33473;51.640;5.892;2023-12-07T21:29:31;23.53;22.46;12.22
47709;PMS7003;33473;51.640;5.892;2023-12-07T21:42:51;23.65;22.57;12.33
47709;PMS7003;33473;51.640;5.892;2023-12-07T21:56:12;22.93;21.81;12.33
47709;PMS7003;33473;51.640;5.892;2023-12-07T22:09:31;24.61;22.79;12.87
47709;PMS7003;33473;51.640;5.892;2023-12-07T22:22:51;27.37;23.88;12.98
47709;PMS7003;33473;51.640;5.892;2023-12-07T22:36:12;27.49;23.99;13.42
47709;PMS7003;33473;51.640;5.892;2023-12-07T22:49:34;24.97;23.01;13.2
47709;PMS7003;33473;51.640;5.892;2023-12-07T23:02:53;25.93;23.77;13.2
47709;PMS7003;33473;51.640;5.892;2023-12-07T23:16:13;26.17;23.99;13.09
47709;PMS7003;33473;51.640;5.892;2023-12-07T23:29:34;24.61;23.01;12.76
47709;PMS7003;33473;51.640;5.892;2023-12-07T23:42:55;24.25;22.46;12.44
47709;PMS7003;33473;51.640;5.892;2023-12-07T23:56:17;23.89;22.03;12.33
